createdAt,value
2022-12-29T00:01:08.905Z,1.70
2022-12-29T00:03:36.183Z,1.50
2022-12-29T00:06:03.875Z,2.00
2022-12-29T00:08:42.724Z,2.10
2022-12-29T00:11:16.526Z,1.80
2022-12-29T00:14:03.345Z,1.70
2022-12-29T00:16:33.227Z,1.70
2022-12-29T00:19:00.142Z,2.00
2022-12-29T00:21:47.873Z,1.60
2022-12-29T00:24:26.677Z,1.80
2022-12-29T00:27:33.666Z,1.60
2022-12-29T00:30:20.205Z,2.20
2022-12-29T00:33:08.931Z,1.50
2022-12-29T00:35:43.333Z,1.40
2022-12-29T00:38:30.934Z,2.40
2022-12-29T00:41:25.084Z,2.10
2022-12-29T00:44:06.776Z,2.20
2022-12-29T00:46:42.033Z,1.80
2022-12-29T00:49:30.260Z,1.90
2022-12-29T00:52:01.146Z,1.80
2022-12-29T00:54:34.555Z,1.90
2022-12-29T00:57:02.395Z,2.10
2022-12-29T00:59:30.180Z,2.30
2022-12-29T01:01:58.618Z,1.90
2022-12-29T01:04:29.397Z,2.00
2022-12-29T01:06:58.307Z,2.00
2022-12-29T01:09:45.020Z,2.10
2022-12-29T01:14:40.778Z,2.10
2022-12-29T01:17:07.551Z,1.80
2022-12-29T01:19:35.972Z,2.00
2022-12-29T01:22:04.199Z,1.60
2022-12-29T01:24:30.848Z,2.10
2022-12-29T01:26:59.470Z,2.00
2022-12-29T01:29:26.446Z,2.30
2022-12-29T01:31:53.078Z,2.20
2022-12-29T01:34:20.873Z,1.90
2022-12-29T01:36:47.450Z,2.00
2022-12-29T01:39:14.587Z,2.20
2022-12-29T01:41:41.617Z,2.10
2022-12-29T01:44:46.240Z,2.60
2022-12-29T01:47:20.299Z,2.10
2022-12-29T01:49:47.234Z,2.00
2022-12-29T01:52:13.947Z,2.10
2022-12-29T01:54:51.181Z,2.50
2022-12-29T01:57:27.480Z,2.40
2022-12-29T02:00:00.737Z,1.80
2022-12-29T02:02:33.069Z,1.60
2022-12-29T02:05:05.767Z,1.70
2022-12-29T02:07:32.623Z,2.10
2022-12-29T02:10:02.248Z,2.70
2022-12-29T02:12:29.216Z,2.30
2022-12-29T02:15:02.077Z,2.30
2022-12-29T02:18:12.553Z,2.10
2022-12-29T02:20:54.587Z,2.30
2022-12-29T02:24:05.665Z,2.20
2022-12-29T02:26:40.394Z,2.30
2022-12-29T02:29:21.709Z,2.10
2022-12-29T02:31:51.691Z,2.50
2022-12-29T02:34:47.862Z,2.00
2022-12-29T02:37:31.852Z,2.20
2022-12-29T02:40:14.618Z,2.40
2022-12-29T02:43:13.720Z,2.00
2022-12-29T02:45:50.771Z,2.00
2022-12-29T02:48:47.621Z,2.00
2022-12-29T02:51:25.127Z,2.20
2022-12-29T02:54:12.803Z,2.00
2022-12-29T02:56:40.961Z,1.80
2022-12-29T02:59:09.976Z,2.00
2022-12-29T03:02:21.254Z,1.90
2022-12-29T03:04:55.271Z,1.70
2022-12-29T03:07:39.836Z,2.10
2022-12-29T03:10:22.613Z,2.20
2022-12-29T03:13:29.086Z,2.00
2022-12-29T03:16:26.901Z,1.90
2022-12-29T03:18:59.137Z,2.10
2022-12-29T03:21:59.832Z,2.00
2022-12-29T03:24:32.095Z,2.10
2022-12-29T03:27:04.358Z,2.00
2022-12-29T03:29:39.507Z,1.80
2022-12-29T03:32:12.215Z,2.20
2022-12-29T03:34:39.858Z,1.60
2022-12-29T03:37:14.881Z,1.80
2022-12-29T03:39:43.078Z,2.10
2022-12-29T03:42:15.953Z,1.70
2022-12-29T03:44:45.892Z,1.80
2022-12-29T03:47:16.436Z,1.70
2022-12-29T03:49:49.002Z,1.90
2022-12-29T03:52:16.749Z,1.80
2022-12-29T03:54:48.255Z,1.70
2022-12-29T03:57:14.963Z,1.70
2022-12-29T03:59:50.872Z,1.70
2022-12-29T04:02:18.983Z,1.60
2022-12-29T04:04:47.390Z,1.50
2022-12-29T04:07:15.398Z,1.50
2022-12-29T04:09:44.880Z,1.60
2022-12-29T04:12:17.065Z,1.80
2022-12-29T04:14:47.170Z,1.50
2022-12-29T04:17:13.722Z,1.60
2022-12-29T04:19:41.744Z,1.60
2022-12-29T04:22:08.382Z,1.70
2022-12-29T04:24:37.333Z,1.40
2022-12-29T04:27:04.078Z,1.20
2022-12-29T04:29:47.928Z,1.50
2022-12-29T04:32:34.600Z,1.30
2022-12-29T04:35:07.837Z,1.60
2022-12-29T04:37:37.031Z,1.50
2022-12-29T04:40:04.031Z,1.30
2022-12-29T04:42:33.618Z,1.40
2022-12-29T04:45:02.627Z,1.20
2022-12-29T04:47:40.093Z,0.90
2022-12-29T04:50:29.372Z,1.20
2022-12-29T04:53:17.019Z,1.30
2022-12-29T04:55:44.683Z,0.80
2022-12-29T04:58:14.060Z,1.20
2022-12-29T05:00:44.410Z,1.20
2022-12-29T05:03:12.812Z,1.20
2022-12-29T05:05:42.687Z,1.10
2022-12-29T05:08:09.495Z,0.90
2022-12-29T05:10:36.126Z,0.90
2022-12-29T05:13:08.207Z,0.80
2022-12-29T05:15:38.320Z,0.80
2022-12-29T05:18:05.263Z,0.90
2022-12-29T05:20:32.280Z,0.60
2022-12-29T05:22:59.297Z,0.60
2022-12-29T05:25:26.997Z,0.80
2022-12-29T05:28:20.388Z,1.00
2022-12-29T05:30:55.777Z,1.00
2022-12-29T05:33:26.411Z,0.80
2022-12-29T05:35:55.855Z,0.90
2022-12-29T05:38:24.221Z,1.00
2022-12-29T05:40:50.717Z,0.80
2022-12-29T05:43:36.307Z,1.00
2022-12-29T05:46:29.208Z,0.80
2022-12-29T05:49:19.406Z,1.10
2022-12-29T05:52:18.432Z,0.90
2022-12-29T05:54:47.763Z,0.80
2022-12-29T05:57:22.341Z,1.00
2022-12-29T05:59:57.507Z,1.20
2022-12-29T06:02:25.616Z,0.90
2022-12-29T06:04:52.852Z,0.80
2022-12-29T06:07:19.526Z,0.60
2022-12-29T06:09:49.021Z,1.00
2022-12-29T06:12:17.417Z,0.90
2022-12-29T06:14:47.279Z,1.60
2022-12-29T06:17:13.770Z,1.20
2022-12-29T06:19:45.091Z,0.70
2022-12-29T06:22:15.200Z,0.90
2022-12-29T06:24:43.541Z,0.60
2022-12-29T06:27:11.281Z,0.60
2022-12-29T06:29:41.760Z,0.80
2022-12-29T06:32:12.157Z,0.50
2022-12-29T06:34:43.529Z,0.70
2022-12-29T06:37:14.463Z,0.70
2022-12-29T06:39:44.197Z,0.70
2022-12-29T06:42:12.855Z,0.70
2022-12-29T06:45:09.074Z,0.70
2022-12-29T06:47:37.106Z,0.70
2022-12-29T06:50:05.084Z,0.70
2022-12-29T06:52:32.793Z,0.50
2022-12-29T06:55:00.381Z,0.80
2022-12-29T06:57:27.702Z,0.80
2022-12-29T06:59:58.077Z,0.80
2022-12-29T07:02:28.023Z,0.80
2022-12-29T07:05:03.318Z,0.70
2022-12-29T07:07:29.852Z,0.70
2022-12-29T07:09:58.049Z,0.60
2022-12-29T07:12:24.683Z,1.00
2022-12-29T07:14:53.583Z,1.00
2022-12-29T07:17:21.779Z,0.80
2022-12-29T07:19:52.818Z,0.70
2022-12-29T07:22:19.959Z,0.60
2022-12-29T07:24:52.377Z,0.60
2022-12-29T07:27:18.958Z,0.90
2022-12-29T07:29:47.267Z,0.70
2022-12-29T07:32:18.694Z,0.70
2022-12-29T07:34:52.142Z,0.80
2022-12-29T07:37:21.377Z,0.70
2022-12-29T07:39:48.414Z,0.60
2022-12-29T07:42:18.234Z,0.70
2022-12-29T07:44:52.133Z,0.60
2022-12-29T07:47:37.039Z,0.90
2022-12-29T07:50:04.103Z,0.90
2022-12-29T07:52:31.006Z,0.90
2022-12-29T07:54:57.547Z,0.80
2022-12-29T07:57:31.339Z,0.80
2022-12-29T07:59:59.534Z,0.80
2022-12-29T08:02:31.078Z,0.90
2022-12-29T08:04:58.129Z,0.80
2022-12-29T08:07:27.561Z,0.90
2022-12-29T08:09:55.318Z,0.90
2022-12-29T08:12:21.965Z,0.70
2022-12-29T08:14:49.319Z,0.80
2022-12-29T08:17:16.303Z,0.80
2022-12-29T08:19:52.134Z,0.60
2022-12-29T08:22:19.157Z,1.10
2022-12-29T08:24:45.859Z,0.70
2022-12-29T08:27:20.330Z,0.90
2022-12-29T08:29:52.098Z,0.80
2022-12-29T08:32:22.978Z,0.70
2022-12-29T08:34:49.979Z,0.90
2022-12-29T08:37:17.715Z,0.80
2022-12-29T08:39:45.601Z,0.80
2022-12-29T08:42:14.675Z,0.60
2022-12-29T08:44:41.473Z,0.90
2022-12-29T08:47:12.582Z,0.70
2022-12-29T08:49:41.751Z,0.50
2022-12-29T08:52:09.451Z,0.80
2022-12-29T08:54:37.250Z,0.70
2022-12-29T08:57:05.341Z,0.70
2022-12-29T08:59:39.432Z,0.70
2022-12-29T09:02:06.798Z,0.70
2022-12-29T09:04:35.057Z,0.70
2022-12-29T09:07:01.850Z,0.50
2022-12-29T09:09:32.539Z,0.80
2022-12-29T09:12:00.533Z,0.60
2022-12-29T09:14:27.219Z,0.50
2022-12-29T09:17:14.981Z,0.40
2022-12-29T09:19:43.011Z,0.70
2022-12-29T09:22:09.767Z,0.70
2022-12-29T09:24:36.465Z,0.90
2022-12-29T09:27:06.145Z,0.70
2022-12-29T09:29:34.509Z,0.60
2022-12-29T09:32:02.164Z,0.60
2022-12-29T09:34:29.283Z,0.60
2022-12-29T09:36:58.743Z,0.50
2022-12-29T09:39:26.954Z,0.70
2022-12-29T09:42:18.059Z,0.70
2022-12-29T09:45:17.681Z,0.50
2022-12-29T09:47:46.578Z,0.80
2022-12-29T09:50:36.058Z,0.60
2022-12-29T09:53:08.619Z,0.60
2022-12-29T09:55:51.165Z,0.70
2022-12-29T09:58:40.622Z,0.60
2022-12-29T10:01:27.922Z,0.50
2022-12-29T10:04:00.398Z,0.60
2022-12-29T10:07:19.382Z,0.50
2022-12-29T10:10:02.491Z,0.80
2022-12-29T10:13:02.361Z,0.80
2022-12-29T10:15:57.716Z,0.60
2022-12-29T10:22:29.709Z,0.60
2022-12-29T10:25:17.138Z,0.90
2022-12-29T10:27:47.889Z,0.90
2022-12-29T10:30:16.030Z,1.50
2022-12-29T10:32:55.125Z,0.70
2022-12-29T10:35:25.509Z,0.60
2022-12-29T10:38:14.693Z,0.90
2022-12-29T10:41:01.872Z,0.80
2022-12-29T10:43:32.123Z,0.80
2022-12-29T10:46:08.435Z,0.60
2022-12-29T10:48:36.361Z,0.70
2022-12-29T10:51:08.172Z,0.80
2022-12-29T10:53:52.321Z,1.00
2022-12-29T10:56:33.464Z,0.90
2022-12-29T10:59:08.617Z,1.00
2022-12-29T11:01:45.479Z,0.80
2022-12-29T11:04:18.571Z,1.00
2022-12-29T11:06:46.893Z,1.00
2022-12-29T11:09:41.416Z,0.90
2022-12-29T11:12:31.035Z,0.80
2022-12-29T11:15:08.079Z,0.80
2022-12-29T11:17:57.754Z,0.80
2022-12-29T11:20:39.527Z,0.90
2022-12-29T11:23:25.762Z,0.60
2022-12-29T11:26:08.440Z,0.80
2022-12-29T11:28:36.411Z,0.70
2022-12-29T11:31:05.863Z,0.70
2022-12-29T11:33:35.311Z,0.80
2022-12-29T11:36:17.294Z,0.70
2022-12-29T11:38:51.301Z,0.60
2022-12-29T11:41:25.848Z,0.60
2022-12-29T11:43:59.143Z,0.50
2022-12-29T11:46:30.701Z,0.60
2022-12-29T11:49:00.674Z,0.60
2022-12-29T11:51:35.328Z,0.50
2022-12-29T11:54:05.918Z,0.90
2022-12-29T11:56:40.177Z,0.80
2022-12-29T11:59:35.518Z,0.60
2022-12-29T12:02:16.356Z,0.70
2022-12-29T12:04:45.878Z,0.60
2022-12-29T12:07:24.496Z,0.50
2022-12-29T12:10:04.871Z,0.70
2022-12-29T12:12:53.164Z,0.40
2022-12-29T12:15:29.563Z,0.60
2022-12-29T12:18:24.736Z,0.60
2022-12-29T12:20:57.931Z,0.60
2022-12-29T12:23:54.220Z,0.70
2022-12-29T12:26:38.799Z,0.90
2022-12-29T12:29:14.305Z,0.90
2022-12-29T12:31:56.788Z,0.70
2022-12-29T12:34:34.919Z,0.70
2022-12-29T12:37:16.754Z,1.20
2022-12-29T12:40:09.056Z,0.70
2022-12-29T12:43:23.232Z,1.10
2022-12-29T12:46:16.987Z,0.70
2022-12-29T12:49:02.013Z,1.40
2022-12-29T12:51:52.044Z,1.00
2022-12-29T12:54:51.071Z,0.80
2022-12-29T12:57:49.679Z,0.80
2022-12-29T13:00:19.824Z,0.80
2022-12-29T13:03:16.234Z,0.90
2022-12-29T13:05:57.155Z,0.80
2022-12-29T13:09:02.883Z,0.90
2022-12-29T13:11:42.784Z,0.70
2022-12-29T13:14:47.486Z,0.80
2022-12-29T13:17:35.374Z,1.80
2022-12-29T13:20:17.346Z,0.90
2022-12-29T13:23:07.291Z,0.80
2022-12-29T13:25:44.127Z,0.80
2022-12-29T13:28:31.563Z,0.90
2022-12-29T13:31:36.692Z,0.70
2022-12-29T13:34:26.133Z,0.70
2022-12-29T13:37:00.281Z,0.70
2022-12-29T13:39:44.645Z,0.70
2022-12-29T13:42:14.484Z,0.80
2022-12-29T13:44:54.264Z,0.80
2022-12-29T13:47:42.537Z,0.70
2022-12-29T13:50:19.862Z,0.80
2022-12-29T13:53:00.800Z,0.90
2022-12-29T13:55:44.011Z,0.90
2022-12-29T13:58:24.452Z,1.20
2022-12-29T14:01:10.525Z,0.80
2022-12-29T14:03:59.998Z,0.90
2022-12-29T14:06:37.984Z,0.70
2022-12-29T14:09:33.606Z,1.00
2022-12-29T14:12:02.216Z,0.50
2022-12-29T14:14:32.588Z,0.70
2022-12-29T14:17:15.664Z,0.40
2022-12-29T14:19:46.197Z,0.60
2022-12-29T14:22:13.891Z,0.60
2022-12-29T14:24:46.822Z,0.60
2022-12-29T14:27:13.455Z,0.40
2022-12-29T14:29:41.263Z,0.40
2022-12-29T14:32:27.548Z,0.60
2022-12-29T14:34:59.034Z,0.50
2022-12-29T14:37:33.578Z,0.90
2022-12-29T14:40:29.491Z,0.80
2022-12-29T14:42:58.556Z,0.50
2022-12-29T14:45:30.951Z,0.70
2022-12-29T14:47:58.264Z,0.60
2022-12-29T14:50:42.123Z,0.60
2022-12-29T14:54:06.224Z,1.00
2022-12-29T14:56:40.973Z,1.00
2022-12-29T14:59:11.984Z,0.60
2022-12-29T15:01:54.830Z,0.70
2022-12-29T15:04:26.193Z,0.60
2022-12-29T15:06:54.153Z,0.80
2022-12-29T15:09:40.432Z,1.00
2022-12-29T15:12:29.599Z,1.00
2022-12-29T15:14:58.705Z,0.70
2022-12-29T15:17:39.997Z,0.80
2022-12-29T15:20:32.392Z,1.30
2022-12-29T15:23:05.147Z,0.80
2022-12-29T15:25:32.224Z,1.10
2022-12-29T15:28:04.723Z,0.90
2022-12-29T15:30:32.762Z,0.90
2022-12-29T15:32:59.677Z,0.90
2022-12-29T15:35:32.330Z,0.70
2022-12-29T15:37:59.865Z,1.00
2022-12-29T15:40:32.572Z,1.10
2022-12-29T15:43:18.790Z,1.00
2022-12-29T15:45:49.624Z,0.80
2022-12-29T15:48:22.495Z,0.80
2022-12-29T15:50:50.008Z,0.80
2022-12-29T15:53:29.678Z,0.70
2022-12-29T15:56:08.776Z,1.50
2022-12-29T15:58:49.793Z,1.10
2022-12-29T16:01:33.003Z,0.90
2022-12-29T16:04:02.202Z,1.20
2022-12-29T16:07:03.865Z,1.50
2022-12-29T16:09:43.146Z,1.20
2022-12-29T16:12:23.812Z,1.00
2022-12-29T16:15:16.611Z,1.00
2022-12-29T16:17:54.352Z,1.10
2022-12-29T16:20:29.744Z,0.80
2022-12-29T16:22:59.913Z,0.90
2022-12-29T16:25:32.489Z,1.30
2022-12-29T16:28:01.922Z,1.20
2022-12-29T16:30:34.095Z,1.30
2022-12-29T16:33:04.373Z,1.10
2022-12-29T16:35:47.202Z,1.20
2022-12-29T16:38:21.627Z,1.20
2022-12-29T16:41:04.743Z,1.10
2022-12-29T16:43:35.098Z,1.70
2022-12-29T16:46:01.585Z,1.30
2022-12-29T16:48:34.589Z,1.50
2022-12-29T16:51:16.642Z,1.30
2022-12-29T16:53:50.859Z,1.30
2022-12-29T16:56:26.167Z,1.30
2022-12-29T16:59:07.533Z,1.40
2022-12-29T17:01:43.436Z,1.60
2022-12-29T17:04:13.938Z,1.90
2022-12-29T17:06:41.049Z,1.10
2022-12-29T17:09:22.762Z,1.30
2022-12-29T17:12:00.467Z,1.60
2022-12-29T17:14:57.609Z,1.10
2022-12-29T17:17:41.419Z,1.50
2022-12-29T17:20:23.610Z,1.20
2022-12-29T17:22:57.143Z,2.90
2022-12-29T17:25:33.584Z,1.20
2022-12-29T17:28:02.979Z,1.70
2022-12-29T17:30:34.780Z,1.70
2022-12-29T17:33:06.111Z,3.10
2022-12-29T17:35:32.748Z,1.90
2022-12-29T17:37:59.604Z,2.60
2022-12-29T17:40:36.171Z,1.80
2022-12-29T17:43:18.082Z,2.40
2022-12-29T17:45:50.212Z,2.10
2022-12-29T17:48:20.202Z,1.90
2022-12-29T17:50:50.002Z,1.20
2022-12-29T17:53:23.071Z,1.20
2022-12-29T17:55:50.457Z,2.30
2022-12-29T17:58:27.827Z,2.20
2022-12-29T18:00:59.148Z,3.60
2022-12-29T18:03:38.659Z,3.80
2022-12-29T18:06:10.734Z,2.10
2022-12-29T18:08:41.011Z,2.30
2022-12-29T18:11:26.240Z,1.90
2022-12-29T18:13:54.565Z,2.00
2022-12-29T18:16:22.663Z,1.90
2022-12-29T18:18:50.179Z,1.60
2022-12-29T18:21:20.260Z,1.90
2022-12-29T18:23:47.978Z,1.50
2022-12-29T18:26:28.212Z,1.50
2022-12-29T18:28:57.159Z,2.60
2022-12-29T18:31:29.696Z,1.20
2022-12-29T18:33:58.276Z,1.80
2022-12-29T18:36:28.660Z,1.80
2022-12-29T18:38:55.257Z,1.80
2022-12-29T18:41:27.020Z,1.50
2022-12-29T18:43:55.194Z,2.20
2022-12-29T18:46:23.438Z,1.80
2022-12-29T18:48:52.197Z,2.20
2022-12-29T18:51:21.658Z,2.10
2022-12-29T18:53:48.954Z,2.10
2022-12-29T18:56:17.077Z,2.20
2022-12-29T18:58:50.147Z,2.80
2022-12-29T19:01:28.230Z,2.40
2022-12-29T19:03:56.324Z,2.30
2022-12-29T19:06:22.995Z,1.80
2022-12-29T19:08:49.630Z,1.90
2022-12-29T19:11:16.273Z,2.40
2022-12-29T19:13:42.881Z,2.60
2022-12-29T19:16:18.899Z,3.00
2022-12-29T19:18:58.271Z,2.70
2022-12-29T19:21:34.143Z,2.70
2022-12-29T19:24:26.695Z,2.72
2022-12-29T19:24:28.131Z,2.50
2022-12-29T19:26:53.223Z,3.05
2022-12-29T19:26:54.606Z,2.30
2022-12-29T19:29:19.621Z,3.30
2022-12-29T19:29:21.213Z,2.80
2022-12-29T19:31:46.240Z,4.28
2022-12-29T19:31:47.766Z,3.00
2022-12-29T19:34:14.869Z,4.97
2022-12-29T19:34:15.937Z,3.80
2022-12-29T19:36:42.465Z,4.30
2022-12-29T19:36:44.368Z,3.40
2022-12-29T19:39:09.425Z,3.90
2022-12-29T19:39:15.188Z,4.10
2022-12-29T19:41:36.181Z,5.05
2022-12-29T19:41:41.827Z,4.30
2022-12-29T19:44:02.798Z,7.00
2022-12-29T19:44:08.325Z,14.10
2022-12-29T19:46:29.435Z,3.90
2022-12-29T19:46:34.869Z,2.80
2022-12-29T19:48:59.034Z,4.13
2022-12-29T19:49:01.432Z,2.80
2022-12-29T19:51:26.354Z,3.67
2022-12-29T19:51:28.110Z,2.40
2022-12-29T19:53:54.100Z,4.10
2022-12-29T19:53:55.546Z,2.30
2022-12-29T19:56:20.597Z,3.45
2022-12-29T19:56:22.334Z,2.80
2022-12-29T19:58:47.899Z,3.28
2022-12-29T19:58:50.191Z,2.80
2022-12-29T20:01:17.549Z,3.88
2022-12-29T20:01:22.699Z,2.80
2022-12-29T20:03:44.406Z,2.72
2022-12-29T20:03:50.526Z,2.10
2022-12-29T20:06:11.574Z,3.10
2022-12-29T20:06:18.288Z,1.80
2022-12-29T20:08:39.540Z,2.25
2022-12-29T20:08:45.031Z,1.70
2022-12-29T20:11:12.955Z,3.00
2022-12-29T20:11:17.460Z,1.80
2022-12-29T20:13:40.303Z,2.17
2022-12-29T20:13:48.399Z,1.70
2022-12-29T20:16:12.853Z,2.08
2022-12-29T20:16:18.264Z,1.70
2022-12-29T20:18:39.406Z,2.20
2022-12-29T20:18:49.301Z,1.30
2022-12-29T20:21:08.296Z,1.75
2022-12-29T20:21:22.480Z,1.20
2022-12-29T20:23:36.966Z,2.35
2022-12-29T20:23:54.180Z,1.10
2022-12-29T20:26:04.186Z,2.17
2022-12-29T20:26:25.506Z,1.10
2022-12-29T20:28:30.710Z,1.30
2022-12-29T20:28:52.809Z,1.20
2022-12-29T20:31:06.578Z,1.65
2022-12-29T20:31:29.303Z,1.10
2022-12-29T20:33:34.979Z,1.25
2022-12-29T20:33:57.457Z,0.70
2022-12-29T20:36:07.466Z,1.10
2022-12-29T20:36:28.465Z,0.70
2022-12-29T20:38:34.180Z,0.88
2022-12-29T20:38:58.751Z,0.80
2022-12-29T20:41:00.702Z,1.25
2022-12-29T20:41:26.017Z,0.70
2022-12-29T20:43:27.192Z,0.90
2022-12-29T20:43:55.241Z,0.90
2022-12-29T20:45:53.763Z,1.40
2022-12-29T20:46:28.059Z,0.70
2022-12-29T20:48:20.415Z,1.20
2022-12-29T20:49:01.787Z,0.90
2022-12-29T20:50:46.950Z,0.90
2022-12-29T20:51:59.271Z,0.70
2022-12-29T20:53:13.431Z,1.02
2022-12-29T20:54:17.682Z,0.90
2022-12-29T20:55:41.246Z,1.08
2022-12-29T20:56:46.504Z,0.90
2022-12-29T20:58:24.460Z,1.02
2022-12-29T20:59:29.812Z,0.70
2022-12-29T21:00:52.153Z,1.67
2022-12-29T21:02:01.437Z,0.90
2022-12-29T21:03:18.755Z,0.85
2022-12-29T21:04:38.422Z,0.80
2022-12-29T21:05:45.362Z,0.90
2022-12-29T21:07:19.906Z,1.50
2022-12-29T21:08:12.265Z,1.50
2022-12-29T21:09:47.060Z,0.90
2022-12-29T21:10:39.113Z,1.58
2022-12-29T21:12:14.467Z,1.00
2022-12-29T21:13:05.810Z,0.93
2022-12-29T21:14:46.224Z,0.80
2022-12-29T21:15:32.397Z,1.35
2022-12-29T21:17:12.936Z,1.30
2022-12-29T21:17:58.862Z,1.05
2022-12-29T21:19:41.490Z,1.00
2022-12-29T21:20:31.953Z,1.02
2022-12-29T21:22:08.624Z,0.80
2022-12-29T21:23:00.494Z,1.30
2022-12-29T21:24:35.297Z,1.60
2022-12-29T21:25:36.707Z,1.25
2022-12-29T21:27:02.124Z,0.80
2022-12-29T21:28:08.246Z,1.45
2022-12-29T21:29:28.825Z,0.50
2022-12-29T21:30:35.305Z,0.80
2022-12-29T21:31:56.346Z,0.80
2022-12-29T21:33:01.948Z,1.23
2022-12-29T21:34:24.365Z,0.80
2022-12-29T21:35:28.695Z,0.98
2022-12-29T21:36:54.097Z,0.90
2022-12-29T21:37:55.160Z,1.00
2022-12-29T21:39:20.897Z,1.30
2022-12-29T21:40:24.584Z,1.00
2022-12-29T21:41:52.952Z,0.90
2022-12-29T21:42:51.095Z,1.20
2022-12-29T21:44:39.100Z,1.30
2022-12-29T21:45:26.718Z,0.98
2022-12-29T21:49:33.248Z,0.70
2022-12-29T21:51:02.814Z,1.20
2022-12-29T21:52:02.308Z,0.60
2022-12-29T21:53:40.529Z,0.90
2022-12-29T21:54:48.842Z,1.00
2022-12-29T21:56:14.189Z,1.33
2022-12-29T21:57:38.286Z,1.20
2022-12-29T21:59:02.018Z,1.10
2022-12-29T22:00:30.880Z,1.30
2022-12-29T22:01:49.856Z,1.33
2022-12-29T22:03:23.362Z,1.30
2022-12-29T22:04:37.251Z,2.65
2022-12-29T22:06:10.325Z,2.80
2022-12-29T22:07:24.023Z,1.48
2022-12-29T22:08:58.928Z,0.90
2022-12-29T22:10:09.812Z,1.20
2022-12-29T22:11:46.541Z,1.50
2022-12-29T22:12:55.506Z,1.73
2022-12-29T22:14:14.696Z,1.00
2022-12-29T22:15:22.298Z,1.60
2022-12-29T22:16:42.772Z,1.00
2022-12-29T22:17:50.611Z,1.00
2022-12-29T22:19:11.615Z,1.00
2022-12-29T22:20:18.933Z,1.35
2022-12-29T22:21:38.291Z,1.00
2022-12-29T22:22:46.400Z,1.13
2022-12-29T22:24:09.833Z,0.90
2022-12-29T22:25:13.136Z,1.48
2022-12-29T22:26:36.494Z,1.00
2022-12-29T22:27:39.941Z,1.20
2022-12-29T22:29:03.358Z,1.30
2022-12-29T22:30:07.800Z,2.13
2022-12-29T22:31:32.749Z,0.80
2022-12-29T22:32:35.102Z,1.40
2022-12-29T22:34:05.179Z,1.00
2022-12-29T22:35:07.492Z,1.20
2022-12-29T22:36:33.573Z,1.20
2022-12-29T22:37:34.998Z,1.17
2022-12-29T22:39:00.300Z,1.20
2022-12-29T22:40:01.458Z,1.35
2022-12-29T22:41:26.972Z,0.90
2022-12-29T22:42:27.926Z,2.22
2022-12-29T22:43:58.290Z,1.40
2022-12-29T22:44:54.424Z,1.35
2022-12-29T22:46:24.994Z,1.30
2022-12-29T22:47:20.937Z,2.15
2022-12-29T22:48:53.218Z,1.20
2022-12-29T22:49:47.413Z,1.25
2022-12-29T22:51:19.810Z,1.20
2022-12-29T22:52:14.594Z,1.30
2022-12-29T22:53:52.671Z,1.00
2022-12-29T22:54:41.093Z,0.90
2022-12-29T22:56:19.715Z,1.60
2022-12-29T22:57:07.627Z,1.35
2022-12-29T22:58:48.455Z,2.10
2022-12-29T22:59:34.611Z,10.48
2022-12-29T23:01:17.352Z,3.30
2022-12-29T23:02:01.298Z,3.40
2022-12-29T23:03:45.111Z,3.50
2022-12-29T23:06:14.714Z,1.70
2022-12-29T23:07:14.382Z,1.88
2022-12-29T23:08:42.985Z,1.60
2022-12-29T23:09:40.915Z,1.70
2022-12-29T23:11:12.559Z,2.30
2022-12-29T23:12:07.483Z,1.45
2022-12-29T23:13:41.684Z,1.70
2022-12-29T23:14:34.089Z,1.73
2022-12-29T23:16:11.149Z,1.60
2022-12-29T23:17:00.643Z,1.45
2022-12-29T23:18:37.820Z,1.20
2022-12-29T23:19:27.188Z,1.10
2022-12-29T23:21:05.700Z,1.10
2022-12-29T23:21:53.611Z,1.60
2022-12-29T23:23:53.599Z,1.00
2022-12-29T23:24:20.123Z,1.48
2022-12-29T23:26:27.817Z,1.40
2022-12-29T23:26:47.296Z,1.50
2022-12-29T23:28:59.957Z,1.90
2022-12-29T23:29:18.969Z,1.38
2022-12-29T23:31:29.601Z,1.50
2022-12-29T23:31:46.610Z,1.30
2022-12-29T23:33:56.772Z,1.20
2022-12-29T23:34:14.915Z,1.65
2022-12-29T23:36:24.415Z,1.70
2022-12-29T23:36:41.609Z,1.35
2022-12-29T23:38:51.521Z,1.30
2022-12-29T23:39:09.543Z,1.80
2022-12-29T23:41:19.090Z,1.90
2022-12-29T23:41:36.678Z,2.13
2022-12-29T23:43:48.607Z,1.90
2022-12-29T23:44:03.482Z,1.85
2022-12-29T23:46:21.285Z,1.70
2022-12-29T23:46:31.327Z,1.70
2022-12-29T23:48:48.566Z,1.70
2022-12-29T23:48:58.168Z,1.98
2022-12-29T23:51:15.901Z,1.50
2022-12-29T23:51:24.898Z,1.70
2022-12-29T23:53:46.267Z,1.70
2022-12-29T23:53:51.520Z,2.17
2022-12-29T23:56:19.048Z,1.70
2022-12-29T23:56:22.072Z,2.17
2022-12-29T23:58:46.586Z,1.60
2022-12-29T23:58:49.806Z,1.90
